»·PEaware :: AKV0001 CYYR-KAGC

AKV0001 :: CYYR-KAGC

FLIGHT INFORMATION

Flight Status: Arrived
Operator: Unknown
More flights by this operator :: More flights under this callsign
Pilot: Gavin B. (19371)
Aircraft: BOEING 727-200
(B722)
More flights by this aircraft type
Origin: CYYR Goose Bay
Canada
Destination: KAGC Allegheny Co
United States
More flights between these airports :: More routes between these airports
Route: AXOMO YSC LAMED ALB ARKKK PSB KURKE
File this flight plan on PilotEdge
Remarks:
Altitude:
(Current/Filed)
34,000ft
Speed:
(Current/Filed)
500kts
Departed: 12-Sep-18 02:41 AM
Arrived: 12-Sep-18 06:00 AM
Distance/Time
Traveled:
1109nm/3:19
Distance/Time
To Go:
Arrived

Flight Plot

Page will automatically refresh every two minutes.

Flight plan parsing failed; only flown route is shown


Map Options




Map Legend


Flown Route
Filed Route
Departure Airport
Arrival Airport
Navaid (VOR, NDB)
Fix

Horizontal Profiles

Position Reports

Time Latitude Longitude Heading Altitude Ground
Speed
12-Sep-18 02:26 53.307209 -60.402295 42 129ft 0kts
12-Sep-18 02:27 53.307209 -60.402295 42 129ft 0kts
12-Sep-18 02:28 53.307209 -60.402295 42 129ft 0kts
12-Sep-18 02:29 53.307209 -60.402295 42 129ft 0kts
12-Sep-18 02:30 53.307210 -60.402295 42 129ft 0kts
12-Sep-18 02:31 53.307210 -60.402295 42 129ft 0kts
12-Sep-18 02:32 53.307210 -60.402295 42 129ft 0kts
12-Sep-18 02:33 53.307210 -60.402295 42 129ft 0kts
12-Sep-18 02:34 53.307210 -60.402295 42 129ft 0kts
12-Sep-18 02:35 53.309550 -60.403455 39 133ft 21kts
12-Sep-18 02:36 53.313835 -60.405149 309 136ft 19kts
12-Sep-18 02:37 53.318287 -60.403350 12 130ft 24kts
12-Sep-18 02:38 53.322433 -60.410316 300 131ft 16kts
12-Sep-18 02:39 53.325687 -60.416316 313 135ft 18kts
12-Sep-18 02:40 53.329620 -60.422211 308 133ft 21kts
12-Sep-18 02:41 53.333750 -60.430905 308 121ft 25kts
12-Sep-18 02:42 53.334364 -60.435196 224 122ft 13kts
12-Sep-18 02:43 53.319347 -60.409091 133 329ft 168kts
12-Sep-18 02:44 53.283108 -60.356765 193 2925ft 196kts
12-Sep-18 02:45 53.238283 -60.417305 226 6244ft 217kts
12-Sep-18 02:46 53.193441 -60.486857 227 9549ft 228kts
12-Sep-18 02:47 53.145524 -60.559382 227 12485ft 241kts
12-Sep-18 02:48 53.094884 -60.634655 227 15135ft 251kts
12-Sep-18 02:49 53.042897 -60.711898 226 17455ft 261kts
12-Sep-18 02:50 52.987966 -60.793390 227 19576ft 271kts
12-Sep-18 02:51 52.930909 -60.877771 227 21482ft 280kts
12-Sep-18 02:52 52.874395 -60.963739 232 23141ft 286kts
12-Sep-18 02:53 52.819770 -61.058476 232 24609ft 295kts
12-Sep-18 02:54 52.761195 -61.156342 232 25900ft 305kts
12-Sep-18 02:55 52.699765 -61.255162 232 27093ft 314kts
12-Sep-18 02:56 52.636254 -61.355919 232 28187ft 321kts
12-Sep-18 02:57 52.571419 -61.458192 232 29172ft 327kts
12-Sep-18 02:58 52.504954 -61.562449 233 30062ft 333kts
12-Sep-18 02:59 52.438556 -61.666157 232 30873ft 339kts
12-Sep-18 03:00 52.369906 -61.772860 232 31647ft 345kts
12-Sep-18 03:01 52.299992 -61.881131 232 32358ft 350kts
12-Sep-18 03:02 52.229047 -61.990770 232 32994ft 355kts
12-Sep-18 03:03 52.156985 -62.101877 233 33572ft 360kts
12-Sep-18 03:04 52.084039 -62.214011 233 34129ft 363kts
12-Sep-18 03:05 52.009551 -62.329407 233 34213ft 381kts
12-Sep-18 03:06 51.932086 -62.451264 233 34220ft 400kts
12-Sep-18 03:07 51.854195 -62.575636 233 34210ft 419kts
12-Sep-18 03:08 51.772523 -62.707628 232 34216ft 436kts
12-Sep-18 03:09 51.686433 -62.848057 232 34211ft 444kts
12-Sep-18 03:10 51.600276 -62.988645 233 34208ft 444kts
12-Sep-18 03:11 51.513755 -63.129755 233 34210ft 444kts
12-Sep-18 03:12 51.427475 -63.270439 233 34206ft 444kts
12-Sep-18 03:13 51.340931 -63.411729 233 34209ft 444kts
12-Sep-18 03:14 51.254676 -63.552463 233 34204ft 444kts
12-Sep-18 03:15 51.170693 -63.689590 233 34214ft 445kts
12-Sep-18 03:16 51.084378 -63.830423 233 34217ft 446kts
12-Sep-18 03:17 50.998084 -63.971434 233 34218ft 447kts
12-Sep-18 03:18 50.912106 -64.113346 233 34215ft 447kts
12-Sep-18 03:19 50.829609 -64.251291 233 34204ft 446kts
12-Sep-18 03:20 50.744578 -64.393803 234 34204ft 445kts
12-Sep-18 03:21 50.660155 -64.535109 234 34202ft 444kts
12-Sep-18 03:22 50.578116 -64.672348 233 34210ft 443kts
12-Sep-18 03:23 50.495005 -64.811559 233 34212ft 443kts
12-Sep-18 03:24 50.409923 -64.951103 233 34206ft 445kts
12-Sep-18 03:25 50.322914 -65.089383 233 34224ft 447kts
12-Sep-18 03:26 50.235531 -65.227548 234 34269ft 448kts
12-Sep-18 03:27 50.147965 -65.366278 234 34274ft 451kts
12-Sep-18 03:28 50.060204 -65.505661 234 34284ft 453kts
12-Sep-18 03:29 49.972028 -65.646059 234 34276ft 456kts
12-Sep-18 03:30 49.888412 -65.779563 234 34284ft 459kts
12-Sep-18 03:31 49.800217 -65.920743 234 34273ft 464kts
12-Sep-18 03:32 49.710393 -66.065080 234 34285ft 469kts
12-Sep-18 03:33 49.619622 -66.211614 234 34254ft 476kts
12-Sep-18 03:34 49.528739 -66.359028 234 34235ft 481kts
12-Sep-18 03:35 49.436971 -66.508381 234 34235ft 485kts
12-Sep-18 03:36 49.345321 -66.657979 234 34236ft 489kts
12-Sep-18 03:37 49.253372 -66.808505 234 34242ft 493kts
12-Sep-18 03:38 49.159692 -66.962318 234 34242ft 497kts
12-Sep-18 03:39 49.082246 -67.092116 234 34270ft 497kts
12-Sep-18 03:40 48.979082 -67.276024 235 34314ft 488kts
12-Sep-18 03:41 48.892222 -67.429922 230 34319ft 490kts
12-Sep-18 03:42 48.803981 -67.533852 220 34312ft 494kts
12-Sep-18 03:43 48.693707 -67.652976 219 34312ft 493kts
12-Sep-18 03:44 48.568430 -67.796155 225 34319ft 489kts
12-Sep-18 03:45 48.483096 -67.906165 225 34317ft 489kts
12-Sep-18 03:46 48.380159 -68.038977 225 34318ft 489kts
12-Sep-18 03:47 48.277193 -68.171803 225 34321ft 489kts
12-Sep-18 03:48 48.174347 -68.304587 225 34318ft 489kts
12-Sep-18 03:49 48.071909 -68.436947 225 34318ft 489kts
12-Sep-18 03:50 47.968957 -68.569991 226 34318ft 490kts
12-Sep-18 03:51 47.871775 -68.695646 225 34317ft 490kts
12-Sep-18 03:52 47.770485 -68.826667 225 34317ft 490kts
12-Sep-18 03:53 47.668535 -68.959014 225 34309ft 490kts
12-Sep-18 03:54 47.566965 -69.093504 225 34295ft 490kts
12-Sep-18 03:55 47.466700 -69.228592 226 34289ft 490kts
12-Sep-18 03:56 47.366954 -69.363125 226 34286ft 490kts
12-Sep-18 03:57 47.266625 -69.498005 226 34300ft 489kts
12-Sep-18 03:58 47.166785 -69.632364 226 34344ft 488kts
12-Sep-18 03:59 47.070758 -69.761572 226 34345ft 488kts
12-Sep-18 04:00 46.971130 -69.895895 226 34349ft 487kts
12-Sep-18 04:01 46.877957 -70.023957 226 34343ft 472kts
12-Sep-18 04:02 46.785552 -70.153863 226 34339ft 454kts
12-Sep-18 04:03 46.693390 -70.273863 223 34338ft 439kts
12-Sep-18 04:04 46.602451 -70.387822 223 34338ft 425kts
12-Sep-18 04:05 46.514466 -70.497865 224 34333ft 412kts
12-Sep-18 04:06 46.429082 -70.604448 224 34336ft 400kts
12-Sep-18 04:07 46.346808 -70.700297 209 34342ft 393kts
12-Sep-18 04:08 46.255949 -70.780711 218 34336ft 378kts
12-Sep-18 04:09 46.172058 -70.869082 220 34332ft 373kts
12-Sep-18 04:10 46.088755 -70.959663 220 34327ft 380kts
12-Sep-18 04:11 46.004014 -71.052052 219 34347ft 386kts
12-Sep-18 04:12 45.917457 -71.146157 219 34351ft 400kts
12-Sep-18 04:13 45.830707 -71.238895 219 34352ft 425kts
12-Sep-18 04:14 45.733590 -71.343267 219 34351ft 450kts
12-Sep-18 04:15 45.631031 -71.453220 219 34347ft 472kts
12-Sep-18 04:16 45.524648 -71.566899 219 34342ft 479kts
12-Sep-18 04:17 45.422902 -71.675370 219 34344ft 472kts
12-Sep-18 04:18 45.319178 -71.785548 218 34345ft 467kts
12-Sep-18 04:19 45.216537 -71.895199 219 34343ft 461kts
12-Sep-18 04:20 45.106700 -71.986261 213 34345ft 456kts
12-Sep-18 04:21 44.999869 -72.079672 216 34364ft 450kts
12-Sep-18 04:22 44.896864 -72.172889 216 34365ft 444kts
12-Sep-18 04:23 44.797299 -72.261867 216 34369ft 438kts
12-Sep-18 04:24 44.695696 -72.353384 216 34361ft 434kts
12-Sep-18 04:25 44.594149 -72.442906 208 34329ft 434kts
12-Sep-18 04:26 44.476707 -72.481321 206 34341ft 428kts
12-Sep-18 04:27 44.379160 -72.567368 218 34353ft 414kts
12-Sep-18 04:28 44.282961 -72.651604 215 34364ft 415kts
12-Sep-18 04:29 44.186885 -72.731642 214 34373ft 418kts
12-Sep-18 04:30 44.086233 -72.813334 214 34363ft 421kts
12-Sep-18 04:31 43.986169 -72.894301 214 34352ft 423kts
12-Sep-18 04:32 43.887123 -72.974187 214 34344ft 425kts
12-Sep-18 04:33 43.779203 -73.030185 202 34351ft 431kts
12-Sep-18 04:34 43.670668 -73.097316 211 34343ft 428kts
12-Sep-18 04:35 43.567398 -73.174957 212 34342ft 429kts
12-Sep-18 04:36 43.463295 -73.255457 213 34338ft 431kts
12-Sep-18 04:37 43.359145 -73.335990 212 34328ft 433kts
12-Sep-18 04:38 43.254085 -73.417036 213 34315ft 434kts
12-Sep-18 04:39 43.149088 -73.497678 212 34310ft 435kts
12-Sep-18 04:40 43.043825 -73.578120 212 34310ft 435kts
12-Sep-18 04:41 42.941075 -73.656324 212 34312ft 435kts
12-Sep-18 04:42 42.843813 -73.730360 211 34320ft 435kts
12-Sep-18 04:43 42.738940 -73.809329 213 34317ft 429kts
12-Sep-18 04:44 42.677986 -73.938823 233 34323ft 410kts
12-Sep-18 04:45 42.587029 -74.030991 223 34315ft 409kts
12-Sep-18 04:46 42.519335 -74.150501 239 34316ft 406kts
12-Sep-18 04:47 42.464075 -74.284853 242 34320ft 415kts
12-Sep-18 04:48 42.409535 -74.425994 242 34318ft 433kts
12-Sep-18 04:49 42.352917 -74.573210 241 34314ft 448kts
12-Sep-18 04:50 42.261242 -74.678236 217 34321ft 460kts
12-Sep-18 04:51 42.158136 -74.775535 217 34477ft 444kts
12-Sep-18 04:52 42.069959 -74.877892 234 33591ft 411kts
12-Sep-18 04:53 42.012481 -75.009255 242 32493ft 408kts
12-Sep-18 04:54 41.963042 -75.145178 244 31669ft 404kts
12-Sep-18 04:55 41.915437 -75.280411 244 30989ft 399kts
12-Sep-18 04:56 41.870456 -75.404599 244 30374ft 394kts
12-Sep-18 04:57 41.823720 -75.535229 244 29741ft 391kts
12-Sep-18 04:58 41.777795 -75.664633 243 29097ft 389kts
12-Sep-18 04:59 41.731965 -75.792510 244 28613ft 385kts
12-Sep-18 05:00 41.686071 -75.920984 244 28115ft 383kts
12-Sep-18 05:01 41.640278 -76.048735 244 27653ft 380kts
12-Sep-18 05:02 41.594675 -76.175359 244 27194ft 377kts
12-Sep-18 05:03 41.549168 -76.301161 244 26771ft 375kts
12-Sep-18 05:04 41.503937 -76.425703 244 26374ft 373kts
12-Sep-18 05:05 41.458735 -76.549635 244 25997ft 371kts
12-Sep-18 05:06 41.419098 -76.657844 243 25681ft 369kts
12-Sep-18 05:07 41.374663 -76.777546 243 25373ft 367kts
12-Sep-18 05:08 41.330028 -76.898242 243 25068ft 366kts
12-Sep-18 05:09 41.285144 -77.019257 243 24782ft 365kts
12-Sep-18 05:10 41.240218 -77.139853 243 24507ft 363kts
12-Sep-18 05:11 41.195416 -77.259632 243 24254ft 362kts
12-Sep-18 05:12 41.150714 -77.378711 243 24016ft 361kts
12-Sep-18 05:13 41.105896 -77.497565 243 23636ft 359kts
12-Sep-18 05:14 41.061200 -77.615633 242 23070ft 357kts
12-Sep-18 05:15 41.018158 -77.728110 242 22581ft 355kts
12-Sep-18 05:16 41.011070 -77.746603 242 22506ft 354kts
12-Sep-18 05:17 41.011070 -77.746603 242 22506ft 354kts
12-Sep-18 05:18 41.011070 -77.746603 242 22506ft 354kts
12-Sep-18 05:19 41.011070 -77.746603 242 22506ft 354kts
12-Sep-18 05:20 41.011070 -77.746603 242 22506ft 354kts
12-Sep-18 05:21 41.011070 -77.746603 242 22506ft 354kts
12-Sep-18 05:22 41.011070 -77.746603 242 22506ft 354kts
12-Sep-18 05:23 41.011070 -77.746603 242 22506ft 354kts
12-Sep-18 05:24 41.011070 -77.746603 242 22506ft 354kts
12-Sep-18 05:25 41.011070 -77.746603 242 22506ft 354kts
12-Sep-18 05:26 41.011070 -77.746603 242 22506ft 354kts
12-Sep-18 05:27 40.981659 -77.823436 241 22184ft 353kts
12-Sep-18 05:28 40.937343 -77.939113 241 21715ft 352kts
12-Sep-18 05:29 40.888572 -78.044204 215 21205ft 349kts
12-Sep-18 05:30 40.802238 -78.094091 209 20787ft 347kts
12-Sep-18 05:31 40.728191 -78.173781 226 20427ft 344kts
12-Sep-18 05:32 40.667658 -78.263770 229 20096ft 341kts
12-Sep-18 05:33 40.607841 -78.359896 230 19300ft 339kts
12-Sep-18 05:34 40.549068 -78.455974 231 18567ft 336kts
12-Sep-18 05:35 40.490926 -78.551175 231 17870ft 333kts
12-Sep-18 05:36 40.433321 -78.645323 231 17208ft 330kts
12-Sep-18 05:37 40.379751 -78.732019 230 16308ft 326kts
12-Sep-18 05:38 40.323308 -78.823552 230 15154ft 321kts
12-Sep-18 05:39 40.306946 -78.930784 279 14461ft 306kts
12-Sep-18 05:40 40.318018 -79.035066 270 13867ft 289kts
12-Sep-18 05:41 40.312270 -79.139024 264 12891ft 284kts
12-Sep-18 05:42 40.308365 -79.241588 264 12059ft 281kts
12-Sep-18 05:43 40.304820 -79.343203 265 11309ft 276kts
12-Sep-18 05:44 40.301395 -79.443127 265 10573ft 272kts
12-Sep-18 05:45 40.297984 -79.541429 266 9847ft 269kts
12-Sep-18 05:46 40.294765 -79.632358 266 9181ft 266kts
12-Sep-18 05:47 40.291651 -79.708926 266 8633ft 264kts
12-Sep-18 05:48 40.287837 -79.804535 266 7969ft 262kts
12-Sep-18 05:49 40.284228 -79.899204 267 7324ft 260kts
12-Sep-18 05:50 40.280569 -79.993975 267 6687ft 259kts
12-Sep-18 05:51 40.276862 -80.087654 267 5743ft 258kts
12-Sep-18 05:52 40.273237 -80.181244 268 4787ft 257kts
12-Sep-18 05:53 40.271471 -80.274533 288 3717ft 254kts
12-Sep-18 05:54 40.329514 -80.311710 351 2995ft 232kts
12-Sep-18 05:55 40.360206 -80.271457 102 2996ft 173kts
12-Sep-18 05:56 40.352343 -80.213477 94 3020ft 170kts
12-Sep-18 05:57 40.351725 -80.150280 87 2961ft 159kts
12-Sep-18 05:58 40.353590 -80.098458 87 3028ft 150kts
12-Sep-18 05:59 40.354321 -80.049801 89 2895ft 184kts
12-Sep-18 06:00 40.354234 -79.973803 90 1748ft 173kts
12-Sep-18 06:01 40.354367 -79.921794 89 1230ft 89kts
12-Sep-18 06:02 40.354342 -79.918596 91 1217ft 0kts
12-Sep-18 06:03 40.354340 -79.918559 93 1217ft 1kts
12-Sep-18 06:04 40.353624 -79.918678 256 1216ft 14kts
12-Sep-18 06:05 40.353275 -79.928105 259 1245ft 28kts
12-Sep-18 06:06 40.352812 -79.931709 0 1242ft 7kts
12-Sep-18 06:07 40.353021 -79.931708 0 1242ft 0kts
12-Sep-18 06:08 40.353021 -79.931708 0 1242ft 0kts

Navigation Log

Ident Type
Flight plan parsing failed, navigation log unavailable